EGLCEGNJ

Guest
Details From EGLC - London City
To EGNJ - Humberside
Flight Number -
Tags Generated
Created
Modified
Stats Distance 125 nm / 232 km
Max Altitude 0 ft / 0 m
Waypoints 2
Social Downloads 0
Likes 0
Share VATSIM

Download

Looking for another format? Having issues loading an existing format? Contact us
Advertisement - Login to hide

Notes

Generated

Route

EGLC EGNJ

ID Type Via Altitude Latitude Longitude Leg Dist Tot Dist Heading (true) Name
O EGLC APT - 0 ft / 0 m 51.50558˚ 0.04414˚ - 0 nm - -
O EGNJ APT - 0 ft / 0 m 53.57583˚ -0.35347˚ 125 nm 125 nm 353° / 353° Humberside

Altitude Profile

Advertisement - Login to hide

EGLC

Details ICAO EGLC (LCY)
Name London City
Region United Kingdom
Timezone Europe/London (UTC+0.0)
Stats Elevation 19 ft / 6 m (AMSL)
Location 51.505231° 0.055175°
Runways 1
Magnetic Variation 0.384° W

METAR

EGLC 161520Z AUTO 29010KT 9999 SCT024/// BKN029/// //////TCU 05/02 Q1019

Decode

TAF

Not found

Departure Runways

ID Width Length Bearing (true) Bearing (mag) Surface Threshold Offset Overrun Length
09 98 ft / 30 m 4,931 ft / 1,503 m 92.89° 93.27° Concrete 322 ft / 98 m 164 ft / 50 m
27 98 ft / 30 m 4,931 ft / 1,503 m 272.91° 273.29° Concrete 243 ft / 74 m 279 ft / 85 m

EGNJ

Details ICAO EGNJ (HUY)
Name Humberside
Region United Kingdom
Timezone Europe/London (UTC+0.0)
Stats Elevation 121 ft / 37 m (AMSL)
Location 53.575453° -0.348192°
Runways 2
Magnetic Variation 0.765° W

METAR

EGNJ 161520Z 26005KT 9999 FEW045 02/00 Q1017

Decode

TAF

Not found

Destination Runways

ID Width Length Bearing (true) Bearing (mag) Surface Threshold Offset Overrun Length
03 148 ft / 45 m 7,205 ft / 2,196 m 22.32° 23.09° Asphalt 0 ft / 0 m 0 ft / 0 m
08 98 ft / 30 m 3,421 ft / 1,043 m 82.43° 83.20° Asphalt 0 ft / 0 m 0 ft / 0 m
21 148 ft / 45 m 7,205 ft / 2,196 m 202.33° 203.10° Asphalt 814 ft / 248 m 0 ft / 0 m
26 98 ft / 30 m 3,421 ft / 1,043 m 262.44° 263.21° Asphalt 617 ft / 188 m 0 ft / 0 m

Approach Navaids

Runway Type Ident Frequency Range Bearing (true) Bearing (mag) Slope Elevation
21 Localiser IHS 108.75 MHz 18 nm / 33 km 202.33° 203.09° - 121 ft / 37 m (AMSL)
21 Glidescope IHS 108.75 MHz 10 nm / 19 km 202.33° 203.09° 3.00° 121 ft / 37 m (AMSL)
21 DME IHS 108.75 MHz 18 nm / 33 km - - - 114 ft / 35 m (AMSL)